sensor_id;sensor_type;location;lat;lon;timestamp;P1;durP1;ratioP1;P2;durP2;ratioP2
14923;SDS011;7554;43.600;1.480;2023-02-15T00:01:49;10.27;;;4.30;;
14923;SDS011;7554;43.600;1.480;2023-02-15T00:04:18;6.53;;;3.47;;
14923;SDS011;7554;43.600;1.480;2023-02-15T00:06:48;8.37;;;4.13;;
14923;SDS011;7554;43.600;1.480;2023-02-15T00:09:16;6.87;;;3.43;;
14923;SDS011;7554;43.600;1.480;2023-02-15T00:11:43;6.30;;;3.10;;
14923;SDS011;7554;43.600;1.480;2023-02-15T00:14:16;5.93;;;3.87;;
14923;SDS011;7554;43.600;1.480;2023-02-15T00:16:45;10.77;;;3.83;;
14923;SDS011;7554;43.600;1.480;2023-02-15T00:19:14;5.47;;;3.30;;
14923;SDS011;7554;43.600;1.480;2023-02-15T00:21:42;6.60;;;4.33;;
14923;SDS011;7554;43.600;1.480;2023-02-15T00:24:12;10.10;;;4.00;;
14923;SDS011;7554;43.600;1.480;2023-02-15T00:26:41;7.47;;;3.90;;
14923;SDS011;7554;43.600;1.480;2023-02-15T00:29:09;11.30;;;4.30;;
14923;SDS011;7554;43.600;1.480;2023-02-15T00:31:37;7.13;;;3.03;;
14923;SDS011;7554;43.600;1.480;2023-02-15T00:34:06;8.30;;;4.00;;
14923;SDS011;7554;43.600;1.480;2023-02-15T00:36:37;10.27;;;4.07;;
14923;SDS011;7554;43.600;1.480;2023-02-15T00:39:04;7.90;;;4.07;;
14923;SDS011;7554;43.600;1.480;2023-02-15T00:41:33;7.73;;;3.77;;
14923;SDS011;7554;43.600;1.480;2023-02-15T00:44:01;6.97;;;3.80;;
14923;SDS011;7554;43.600;1.480;2023-02-15T00:46:29;7.47;;;4.43;;
14923;SDS011;7554;43.600;1.480;2023-02-15T00:48:57;12.83;;;4.47;;
14923;SDS011;7554;43.600;1.480;2023-02-15T00:51:24;5.40;;;3.33;;
14923;SDS011;7554;43.600;1.480;2023-02-15T00:53:52;8.30;;;3.70;;
14923;SDS011;7554;43.600;1.480;2023-02-15T00:56:20;7.90;;;4.20;;
14923;SDS011;7554;43.600;1.480;2023-02-15T00:58:49;5.77;;;4.00;;
14923;SDS011;7554;43.600;1.480;2023-02-15T01:01:18;6.40;;;3.87;;
14923;SDS011;7554;43.600;1.480;2023-02-15T01:03:47;7.83;;;3.70;;
14923;SDS011;7554;43.600;1.480;2023-02-15T01:06:14;7.60;;;4.57;;
14923;SDS011;7554;43.600;1.480;2023-02-15T01:08:42;8.53;;;4.23;;
14923;SDS011;7554;43.600;1.480;2023-02-15T01:11:11;6.77;;;3.97;;
14923;SDS011;7554;43.600;1.480;2023-02-15T01:13:40;6.73;;;4.67;;
14923;SDS011;7554;43.600;1.480;2023-02-15T01:16:09;5.67;;;4.37;;
14923;SDS011;7554;43.600;1.480;2023-02-15T01:18:36;7.87;;;4.53;;
14923;SDS011;7554;43.600;1.480;2023-02-15T01:21:11;6.73;;;4.10;;
14923;SDS011;7554;43.600;1.480;2023-02-15T01:23:39;13.30;;;4.83;;
14923;SDS011;7554;43.600;1.480;2023-02-15T01:26:07;10.73;;;3.97;;
14923;SDS011;7554;43.600;1.480;2023-02-15T01:28:35;8.77;;;4.60;;
14923;SDS011;7554;43.600;1.480;2023-02-15T01:31:07;7.47;;;4.70;;
14923;SDS011;7554;43.600;1.480;2023-02-15T01:33:37;12.47;;;4.77;;
14923;SDS011;7554;43.600;1.480;2023-02-15T01:36:05;8.27;;;4.47;;
14923;SDS011;7554;43.600;1.480;2023-02-15T01:38:33;7.43;;;4.30;;
14923;SDS011;7554;43.600;1.480;2023-02-15T01:41:01;8.40;;;4.50;;
14923;SDS011;7554;43.600;1.480;2023-02-15T01:43:50;7.20;;;4.03;;
14923;SDS011;7554;43.600;1.480;2023-02-15T01:46:22;10.47;;;4.47;;
14923;SDS011;7554;43.600;1.480;2023-02-15T01:48:54;10.10;;;4.17;;
14923;SDS011;7554;43.600;1.480;2023-02-15T01:51:25;8.40;;;3.80;;
14923;SDS011;7554;43.600;1.480;2023-02-15T01:53:56;7.20;;;3.97;;
14923;SDS011;7554;43.600;1.480;2023-02-15T01:56:28;9.93;;;4.20;;
14923;SDS011;7554;43.600;1.480;2023-02-15T01:58:59;6.90;;;4.30;;
14923;SDS011;7554;43.600;1.480;2023-02-15T02:01:35;11.50;;;4.70;;
14923;SDS011;7554;43.600;1.480;2023-02-15T02:04:05;8.00;;;4.53;;
14923;SDS011;7554;43.600;1.480;2023-02-15T02:06:37;5.80;;;4.23;;
14923;SDS011;7554;43.600;1.480;2023-02-15T02:09:06;10.27;;;4.43;;
14923;SDS011;7554;43.600;1.480;2023-02-15T02:11:35;8.20;;;4.20;;
14923;SDS011;7554;43.600;1.480;2023-02-15T02:14:02;7.83;;;4.70;;
14923;SDS011;7554;43.600;1.480;2023-02-15T02:16:32;10.47;;;4.83;;
14923;SDS011;7554;43.600;1.480;2023-02-15T02:25:34;8.73;;;4.43;;
14923;SDS011;7554;43.600;1.480;2023-02-15T02:31:28;9.67;;;4.83;;
14923;SDS011;7554;43.600;1.480;2023-02-15T02:34:11;7.33;;;4.07;;
14923;SDS011;7554;43.600;1.480;2023-02-15T02:36:48;9.13;;;4.93;;
14923;SDS011;7554;43.600;1.480;2023-02-15T02:39:23;8.90;;;4.53;;
14923;SDS011;7554;43.600;1.480;2023-02-15T02:42:01;11.33;;;4.60;;
14923;SDS011;7554;43.600;1.480;2023-02-15T02:44:35;8.13;;;3.97;;
14923;SDS011;7554;43.600;1.480;2023-02-15T02:47:09;9.63;;;4.83;;
14923;SDS011;7554;43.600;1.480;2023-02-15T02:49:44;7.87;;;4.63;;
14923;SDS011;7554;43.600;1.480;2023-02-15T02:55:02;8.10;;;4.67;;
14923;SDS011;7554;43.600;1.480;2023-02-15T02:57:32;7.57;;;5.00;;
14923;SDS011;7554;43.600;1.480;2023-02-15T03:00:03;12.30;;;5.10;;
14923;SDS011;7554;43.600;1.480;2023-02-15T03:02:34;9.33;;;5.10;;
14923;SDS011;7554;43.600;1.480;2023-02-15T03:05:07;10.87;;;4.33;;
14923;SDS011;7554;43.600;1.480;2023-02-15T03:07:38;8.57;;;4.87;;
14923;SDS011;7554;43.600;1.480;2023-02-15T03:10:08;11.17;;;5.50;;
14923;SDS011;7554;43.600;1.480;2023-02-15T03:12:37;8.00;;;5.30;;
14923;SDS011;7554;43.600;1.480;2023-02-15T03:15:07;9.97;;;5.80;;
14923;SDS011;7554;43.600;1.480;2023-02-15T03:17:37;11.57;;;5.23;;
14923;SDS011;7554;43.600;1.480;2023-02-15T03:20:11;11.30;;;5.53;;
14923;SDS011;7554;43.600;1.480;2023-02-15T03:22:42;8.17;;;5.57;;
14923;SDS011;7554;43.600;1.480;2023-02-15T03:25:15;10.97;;;5.93;;
14923;SDS011;7554;43.600;1.480;2023-02-15T03:27:47;11.67;;;5.40;;
14923;SDS011;7554;43.600;1.480;2023-02-15T03:30:18;11.57;;;5.67;;
14923;SDS011;7554;43.600;1.480;2023-02-15T03:32:48;8.20;;;5.47;;
14923;SDS011;7554;43.600;1.480;2023-02-15T03:35:19;11.60;;;5.80;;
14923;SDS011;7554;43.600;1.480;2023-02-15T03:37:51;9.13;;;5.20;;
14923;SDS011;7554;43.600;1.480;2023-02-15T03:40:22;8.00;;;5.57;;
14923;SDS011;7554;43.600;1.480;2023-02-15T03:43:10;10.67;;;5.83;;
14923;SDS011;7554;43.600;1.480;2023-02-15T03:45:44;10.20;;;5.83;;
14923;SDS011;7554;43.600;1.480;2023-02-15T03:48:21;11.33;;;5.13;;
14923;SDS011;7554;43.600;1.480;2023-02-15T03:50:54;10.37;;;5.70;;
14923;SDS011;7554;43.600;1.480;2023-02-15T03:53:41;10.90;;;6.17;;
14923;SDS011;7554;43.600;1.480;2023-02-15T03:56:09;12.13;;;6.27;;
14923;SDS011;7554;43.600;1.480;2023-02-15T03:58:37;15.97;;;6.23;;
14923;SDS011;7554;43.600;1.480;2023-02-15T04:01:23;11.10;;;6.00;;
14923;SDS011;7554;43.600;1.480;2023-02-15T04:04:38;14.07;;;6.47;;
14923;SDS011;7554;43.600;1.480;2023-02-15T04:07:08;9.80;;;5.57;;
14923;SDS011;7554;43.600;1.480;2023-02-15T04:09:37;8.57;;;5.70;;
14923;SDS011;7554;43.600;1.480;2023-02-15T04:12:21;10.57;;;5.70;;
14923;SDS011;7554;43.600;1.480;2023-02-15T04:14:49;11.20;;;5.87;;
14923;SDS011;7554;43.600;1.480;2023-02-15T04:17:30;10.13;;;6.03;;
14923;SDS011;7554;43.600;1.480;2023-02-15T04:19:59;8.53;;;5.60;;
14923;SDS011;7554;43.600;1.480;2023-02-15T04:22:43;8.53;;;5.17;;
14923;SDS011;7554;43.600;1.480;2023-02-15T04:25:28;9.23;;;6.27;;
14923;SDS011;7554;43.600;1.480;2023-02-15T04:27:55;13.10;;;5.50;;
14923;SDS011;7554;43.600;1.480;2023-02-15T04:30:24;12.87;;;6.50;;
14923;SDS011;7554;43.600;1.480;2023-02-15T04:32:52;16.90;;;6.67;;
14923;SDS011;7554;43.600;1.480;2023-02-15T04:35:22;12.17;;;6.27;;
14923;SDS011;7554;43.600;1.480;2023-02-15T04:37:49;17.40;;;6.50;;
14923;SDS011;7554;43.600;1.480;2023-02-15T04:40:17;11.17;;;6.00;;
14923;SDS011;7554;43.600;1.480;2023-02-15T04:42:46;15.67;;;5.83;;
14923;SDS011;7554;43.600;1.480;2023-02-15T04:45:14;9.87;;;5.17;;
14923;SDS011;7554;43.600;1.480;2023-02-15T04:47:42;10.87;;;6.57;;
14923;SDS011;7554;43.600;1.480;2023-02-15T04:50:09;13.90;;;6.37;;
14923;SDS011;7554;43.600;1.480;2023-02-15T04:52:39;12.67;;;6.57;;
14923;SDS011;7554;43.600;1.480;2023-02-15T04:55:06;13.20;;;5.97;;
14923;SDS011;7554;43.600;1.480;2023-02-15T04:57:34;11.53;;;6.77;;
14923;SDS011;7554;43.600;1.480;2023-02-15T05:00:01;12.43;;;6.27;;
14923;SDS011;7554;43.600;1.480;2023-02-15T05:02:29;12.20;;;6.53;;
14923;SDS011;7554;43.600;1.480;2023-02-15T05:04:56;14.97;;;6.50;;
14923;SDS011;7554;43.600;1.480;2023-02-15T05:07:23;10.93;;;6.43;;
14923;SDS011;7554;43.600;1.480;2023-02-15T05:09:52;11.37;;;6.43;;
14923;SDS011;7554;43.600;1.480;2023-02-15T05:12:20;15.17;;;6.33;;
14923;SDS011;7554;43.600;1.480;2023-02-15T05:14:47;12.87;;;7.17;;
14923;SDS011;7554;43.600;1.480;2023-02-15T05:17:14;12.50;;;6.63;;
14923;SDS011;7554;43.600;1.480;2023-02-15T05:19:42;12.20;;;6.30;;
14923;SDS011;7554;43.600;1.480;2023-02-15T05:22:09;11.23;;;6.43;;
14923;SDS011;7554;43.600;1.480;2023-02-15T05:24:36;13.23;;;6.93;;
14923;SDS011;7554;43.600;1.480;2023-02-15T05:27:22;13.40;;;7.37;;
14923;SDS011;7554;43.600;1.480;2023-02-15T05:30:08;12.37;;;7.20;;
14923;SDS011;7554;43.600;1.480;2023-02-15T05:32:36;10.00;;;7.03;;
14923;SDS011;7554;43.600;1.480;2023-02-15T05:35:04;11.93;;;7.57;;
14923;SDS011;7554;43.600;1.480;2023-02-15T05:37:32;11.93;;;6.63;;
14923;SDS011;7554;43.600;1.480;2023-02-15T05:40:00;15.63;;;7.30;;
14923;SDS011;7554;43.600;1.480;2023-02-15T05:42:29;11.33;;;7.23;;
14923;SDS011;7554;43.600;1.480;2023-02-15T05:44:56;11.30;;;7.07;;
14923;SDS011;7554;43.600;1.480;2023-02-15T05:47:23;11.57;;;6.97;;
14923;SDS011;7554;43.600;1.480;2023-02-15T05:49:51;11.90;;;7.10;;
14923;SDS011;7554;43.600;1.480;2023-02-15T05:52:18;11.43;;;7.33;;
14923;SDS011;7554;43.600;1.480;2023-02-15T05:54:46;14.70;;;7.40;;
14923;SDS011;7554;43.600;1.480;2023-02-15T05:57:13;14.37;;;7.47;;
14923;SDS011;7554;43.600;1.480;2023-02-15T05:59:42;15.90;;;8.13;;
14923;SDS011;7554;43.600;1.480;2023-02-15T06:02:09;13.33;;;7.87;;
14923;SDS011;7554;43.600;1.480;2023-02-15T06:04:38;14.97;;;7.80;;
14923;SDS011;7554;43.600;1.480;2023-02-15T06:07:05;15.13;;;7.50;;
14923;SDS011;7554;43.600;1.480;2023-02-15T06:09:32;12.03;;;6.60;;
14923;SDS011;7554;43.600;1.480;2023-02-15T06:12:00;12.90;;;7.67;;
14923;SDS011;7554;43.600;1.480;2023-02-15T06:14:27;11.37;;;6.57;;
14923;SDS011;7554;43.600;1.480;2023-02-15T06:16:56;15.23;;;7.30;;
14923;SDS011;7554;43.600;1.480;2023-02-15T06:19:24;11.30;;;5.97;;
14923;SDS011;7554;43.600;1.480;2023-02-15T06:21:51;9.50;;;5.63;;
14923;SDS011;7554;43.600;1.480;2023-02-15T06:24:18;11.53;;;6.47;;
14923;SDS011;7554;43.600;1.480;2023-02-15T06:26:46;13.17;;;6.70;;
14923;SDS011;7554;43.600;1.480;2023-02-15T06:29:13;9.47;;;6.87;;
14923;SDS011;7554;43.600;1.480;2023-02-15T06:31:40;12.70;;;6.17;;
14923;SDS011;7554;43.600;1.480;2023-02-15T06:34:09;14.67;;;7.13;;
14923;SDS011;7554;43.600;1.480;2023-02-15T06:36:37;8.70;;;5.30;;
14923;SDS011;7554;43.600;1.480;2023-02-15T06:39:04;12.03;;;6.07;;
14923;SDS011;7554;43.600;1.480;2023-02-15T06:41:32;11.27;;;6.07;;
14923;SDS011;7554;43.600;1.480;2023-02-15T06:43:59;11.93;;;5.97;;
14923;SDS011;7554;43.600;1.480;2023-02-15T06:46:27;9.77;;;5.80;;
14923;SDS011;7554;43.600;1.480;2023-02-15T06:48:55;13.03;;;5.63;;
14923;SDS011;7554;43.600;1.480;2023-02-15T06:51:24;11.33;;;5.73;;
14923;SDS011;7554;43.600;1.480;2023-02-15T06:53:51;10.27;;;5.33;;
14923;SDS011;7554;43.600;1.480;2023-02-15T06:56:18;10.83;;;6.30;;
14923;SDS011;7554;43.600;1.480;2023-02-15T06:58:46;9.43;;;5.33;;
14923;SDS011;7554;43.600;1.480;2023-02-15T07:01:14;8.30;;;5.80;;
14923;SDS011;7554;43.600;1.480;2023-02-15T07:03:42;10.70;;;5.73;;
14923;SDS011;7554;43.600;1.480;2023-02-15T07:06:09;9.37;;;5.73;;
14923;SDS011;7554;43.600;1.480;2023-02-15T07:08:38;10.40;;;6.10;;
14923;SDS011;7554;43.600;1.480;2023-02-15T07:11:06;8.33;;;6.00;;
14923;SDS011;7554;43.600;1.480;2023-02-15T07:13:51;9.67;;;5.67;;
14923;SDS011;7554;43.600;1.480;2023-02-15T07:16:19;14.37;;;6.23;;
14923;SDS011;7554;43.600;1.480;2023-02-15T07:18:46;13.77;;;6.43;;
14923;SDS011;7554;43.600;1.480;2023-02-15T07:21:14;12.87;;;6.60;;
14923;SDS011;7554;43.600;1.480;2023-02-15T07:23:42;11.10;;;5.90;;
14923;SDS011;7554;43.600;1.480;2023-02-15T07:26:10;9.50;;;4.97;;
14923;SDS011;7554;43.600;1.480;2023-02-15T07:28:38;5.57;;;4.30;;
14923;SDS011;7554;43.600;1.480;2023-02-15T07:31:06;8.07;;;5.37;;
14923;SDS011;7554;43.600;1.480;2023-02-15T07:33:33;9.53;;;4.90;;
14923;SDS011;7554;43.600;1.480;2023-02-15T07:36:01;10.47;;;4.93;;
14923;SDS011;7554;43.600;1.480;2023-02-15T07:38:31;8.83;;;5.33;;
14923;SDS011;7554;43.600;1.480;2023-02-15T07:41:01;7.23;;;4.50;;
14923;SDS011;7554;43.600;1.480;2023-02-15T07:43:32;10.40;;;4.87;;
14923;SDS011;7554;43.600;1.480;2023-02-15T07:46:01;7.17;;;4.23;;
14923;SDS011;7554;43.600;1.480;2023-02-15T07:48:30;9.37;;;4.60;;
14923;SDS011;7554;43.600;1.480;2023-02-15T07:50:58;7.73;;;4.07;;
14923;SDS011;7554;43.600;1.480;2023-02-15T07:53:26;7.40;;;4.50;;
14923;SDS011;7554;43.600;1.480;2023-02-15T07:55:53;9.30;;;4.43;;
14923;SDS011;7554;43.600;1.480;2023-02-15T07:58:23;9.53;;;4.23;;
14923;SDS011;7554;43.600;1.480;2023-02-15T08:01:11;8.73;;;4.13;;
14923;SDS011;7554;43.600;1.480;2023-02-15T08:03:38;7.60;;;4.33;;
14923;SDS011;7554;43.600;1.480;2023-02-15T08:06:06;6.73;;;3.70;;
14923;SDS011;7554;43.600;1.480;2023-02-15T08:08:34;9.17;;;4.30;;
14923;SDS011;7554;43.600;1.480;2023-02-15T08:11:03;7.83;;;4.27;;
14923;SDS011;7554;43.600;1.480;2023-02-15T08:13:51;13.30;;;3.93;;
14923;SDS011;7554;43.600;1.480;2023-02-15T08:16:25;10.27;;;3.90;;
14923;SDS011;7554;43.600;1.480;2023-02-15T08:18:55;9.73;;;4.67;;
14923;SDS011;7554;43.600;1.480;2023-02-15T08:21:25;7.23;;;4.17;;
14923;SDS011;7554;43.600;1.480;2023-02-15T08:23:53;5.77;;;4.00;;
14923;SDS011;7554;43.600;1.480;2023-02-15T08:26:21;6.00;;;4.00;;
14923;SDS011;7554;43.600;1.480;2023-02-15T08:28:51;8.07;;;4.17;;
14923;SDS011;7554;43.600;1.480;2023-02-15T08:31:19;10.37;;;3.97;;
14923;SDS011;7554;43.600;1.480;2023-02-15T08:33:47;7.73;;;4.23;;
14923;SDS011;7554;43.600;1.480;2023-02-15T08:36:16;7.83;;;4.50;;
14923;SDS011;7554;43.600;1.480;2023-02-15T08:38:44;6.83;;;3.73;;
14923;SDS011;7554;43.600;1.480;2023-02-15T08:41:12;7.47;;;3.50;;
14923;SDS011;7554;43.600;1.480;2023-02-15T08:43:42;7.43;;;3.60;;
14923;SDS011;7554;43.600;1.480;2023-02-15T08:46:11;6.60;;;3.57;;
14923;SDS011;7554;43.600;1.480;2023-02-15T08:48:40;5.70;;;3.83;;
14923;SDS011;7554;43.600;1.480;2023-02-15T08:51:08;5.67;;;3.03;;
14923;SDS011;7554;43.600;1.480;2023-02-15T08:53:37;8.83;;;3.67;;
14923;SDS011;7554;43.600;1.480;2023-02-15T08:56:05;7.27;;;4.43;;
14923;SDS011;7554;43.600;1.480;2023-02-15T08:58:34;8.07;;;4.13;;
14923;SDS011;7554;43.600;1.480;2023-02-15T09:01:07;4.80;;;3.00;;
14923;SDS011;7554;43.600;1.480;2023-02-15T09:03:37;6.40;;;3.77;;
14923;SDS011;7554;43.600;1.480;2023-02-15T09:06:05;10.10;;;3.93;;
14923;SDS011;7554;43.600;1.480;2023-02-15T09:08:33;3.83;;;2.33;;
14923;SDS011;7554;43.600;1.480;2023-02-15T09:11:04;8.50;;;3.73;;
14923;SDS011;7554;43.600;1.480;2023-02-15T09:13:33;6.37;;;3.63;;
14923;SDS011;7554;43.600;1.480;2023-02-15T09:16:01;5.43;;;3.37;;
14923;SDS011;7554;43.600;1.480;2023-02-15T09:18:30;4.90;;;2.73;;
14923;SDS011;7554;43.600;1.480;2023-02-15T09:21:13;9.93;;;3.50;;
14923;SDS011;7554;43.600;1.480;2023-02-15T09:23:43;5.47;;;3.77;;
14923;SDS011;7554;43.600;1.480;2023-02-15T09:26:12;6.10;;;3.40;;
14923;SDS011;7554;43.600;1.480;2023-02-15T09:28:42;8.13;;;3.73;;
14923;SDS011;7554;43.600;1.480;2023-02-15T09:31:10;4.13;;;2.97;;
14923;SDS011;7554;43.600;1.480;2023-02-15T09:33:40;7.87;;;3.30;;
14923;SDS011;7554;43.600;1.480;2023-02-15T09:36:15;6.47;;;2.93;;
14923;SDS011;7554;43.600;1.480;2023-02-15T09:38:43;10.27;;;3.43;;
14923;SDS011;7554;43.600;1.480;2023-02-15T09:41:15;6.30;;;3.47;;
14923;SDS011;7554;43.600;1.480;2023-02-15T09:43:52;5.17;;;3.43;;
14923;SDS011;7554;43.600;1.480;2023-02-15T09:46:36;8.10;;;3.57;;
14923;SDS011;7554;43.600;1.480;2023-02-15T09:49:16;5.40;;;3.07;;
14923;SDS011;7554;43.600;1.480;2023-02-15T09:51:59;6.90;;;3.17;;
14923;SDS011;7554;43.600;1.480;2023-02-15T09:54:54;7.30;;;2.83;;
14923;SDS011;7554;43.600;1.480;2023-02-15T09:57:33;7.27;;;3.10;;
14923;SDS011;7554;43.600;1.480;2023-02-15T10:00:07;5.33;;;3.20;;
14923;SDS011;7554;43.600;1.480;2023-02-15T10:02:56;5.20;;;3.30;;
14923;SDS011;7554;43.600;1.480;2023-02-15T10:05:34;5.33;;;3.30;;
14923;SDS011;7554;43.600;1.480;2023-02-15T10:08:25;6.00;;;2.90;;
14923;SDS011;7554;43.600;1.480;2023-02-15T10:11:14;8.10;;;3.60;;
14923;SDS011;7554;43.600;1.480;2023-02-15T10:14:08;5.43;;;3.30;;
14923;SDS011;7554;43.600;1.480;2023-02-15T10:16:52;6.13;;;3.20;;
14923;SDS011;7554;43.600;1.480;2023-02-15T10:19:28;5.97;;;3.50;;
14923;SDS011;7554;43.600;1.480;2023-02-15T10:22:06;7.00;;;3.80;;
14923;SDS011;7554;43.600;1.480;2023-02-15T10:24:52;6.17;;;3.53;;
14923;SDS011;7554;43.600;1.480;2023-02-15T10:27:44;4.53;;;2.83;;
14923;SDS011;7554;43.600;1.480;2023-02-15T10:30:13;5.13;;;2.73;;
14923;SDS011;7554;43.600;1.480;2023-02-15T10:32:43;6.70;;;3.17;;
14923;SDS011;7554;43.600;1.480;2023-02-15T10:35:20;5.77;;;3.43;;
14923;SDS011;7554;43.600;1.480;2023-02-15T10:37:58;10.23;;;3.23;;
14923;SDS011;7554;43.600;1.480;2023-02-15T10:40:36;4.07;;;2.43;;
14923;SDS011;7554;43.600;1.480;2023-02-15T10:43:27;6.37;;;3.23;;
14923;SDS011;7554;43.600;1.480;2023-02-15T10:46:15;3.30;;;2.40;;
14923;SDS011;7554;43.600;1.480;2023-02-15T10:49:08;4.63;;;2.60;;
14923;SDS011;7554;43.600;1.480;2023-02-15T10:51:53;8.17;;;3.60;;
14923;SDS011;7554;43.600;1.480;2023-02-15T10:54:35;5.93;;;3.17;;
14923;SDS011;7554;43.600;1.480;2023-02-15T10:57:09;4.10;;;2.33;;
14923;SDS011;7554;43.600;1.480;2023-02-15T10:59:58;2.90;;;2.00;;
14923;SDS011;7554;43.600;1.480;2023-02-15T11:02:35;5.90;;;2.80;;
14923;SDS011;7554;43.600;1.480;2023-02-15T11:05:20;3.43;;;2.30;;
14923;SDS011;7554;43.600;1.480;2023-02-15T11:07:57;6.80;;;3.03;;
14923;SDS011;7554;43.600;1.480;2023-02-15T11:10:28;3.13;;;2.13;;
14923;SDS011;7554;43.600;1.480;2023-02-15T11:13:03;3.50;;;2.53;;
14923;SDS011;7554;43.600;1.480;2023-02-15T11:15:36;4.67;;;2.20;;
14923;SDS011;7554;43.600;1.480;2023-02-15T11:18:09;5.57;;;2.87;;
14923;SDS011;7554;43.600;1.480;2023-02-15T11:20:44;7.77;;;3.00;;
14923;SDS011;7554;43.600;1.480;2023-02-15T11:23:17;5.03;;;3.00;;
14923;SDS011;7554;43.600;1.480;2023-02-15T11:25:45;5.70;;;3.10;;
14923;SDS011;7554;43.600;1.480;2023-02-15T11:28:20;5.80;;;3.17;;
14923;SDS011;7554;43.600;1.480;2023-02-15T11:30:51;7.40;;;2.57;;
14923;SDS011;7554;43.600;1.480;2023-02-15T11:33:23;6.73;;;2.70;;
14923;SDS011;7554;43.600;1.480;2023-02-15T11:35:56;6.47;;;2.70;;
14923;SDS011;7554;43.600;1.480;2023-02-15T11:38:27;4.30;;;2.57;;
14923;SDS011;7554;43.600;1.480;2023-02-15T11:40:59;4.87;;;2.93;;
14923;SDS011;7554;43.600;1.480;2023-02-15T11:43:33;4.67;;;2.80;;
14923;SDS011;7554;43.600;1.480;2023-02-15T11:46:06;4.67;;;2.40;;
14923;SDS011;7554;43.600;1.480;2023-02-15T11:48:37;5.33;;;3.23;;
14923;SDS011;7554;43.600;1.480;2023-02-15T11:51:04;4.17;;;2.33;;
14923;SDS011;7554;43.600;1.480;2023-02-15T11:53:33;6.77;;;3.47;;
14923;SDS011;7554;43.600;1.480;2023-02-15T11:56:03;7.63;;;2.97;;
14923;SDS011;7554;43.600;1.480;2023-02-15T11:58:35;6.40;;;3.00;;
14923;SDS011;7554;43.600;1.480;2023-02-15T12:01:09;3.53;;;2.37;;
14923;SDS011;7554;43.600;1.480;2023-02-15T12:03:43;3.03;;;2.37;;
14923;SDS011;7554;43.600;1.480;2023-02-15T12:06:16;5.33;;;2.50;;
14923;SDS011;7554;43.600;1.480;2023-02-15T12:08:50;4.90;;;2.50;;
14923;SDS011;7554;43.600;1.480;2023-02-15T12:11:25;6.37;;;2.53;;
14923;SDS011;7554;43.600;1.480;2023-02-15T12:14:01;3.60;;;2.67;;
14923;SDS011;7554;43.600;1.480;2023-02-15T12:16:31;4.93;;;2.77;;
14923;SDS011;7554;43.600;1.480;2023-02-15T12:19:11;12.00;;;3.13;;
14923;SDS011;7554;43.600;1.480;2023-02-15T12:21:49;5.60;;;2.80;;
14923;SDS011;7554;43.600;1.480;2023-02-15T12:24:20;3.90;;;2.83;;
14923;SDS011;7554;43.600;1.480;2023-02-15T12:26:55;4.97;;;2.37;;
14923;SDS011;7554;43.600;1.480;2023-02-15T12:29:27;5.43;;;2.50;;
14923;SDS011;7554;43.600;1.480;2023-02-15T12:31:57;5.33;;;2.80;;
14923;SDS011;7554;43.600;1.480;2023-02-15T12:34:26;4.37;;;2.37;;
14923;SDS011;7554;43.600;1.480;2023-02-15T12:36:57;5.50;;;2.70;;
14923;SDS011;7554;43.600;1.480;2023-02-15T12:39:29;4.40;;;2.50;;
14923;SDS011;7554;43.600;1.480;2023-02-15T12:42:01;6.00;;;2.53;;
14923;SDS011;7554;43.600;1.480;2023-02-15T12:44:33;4.37;;;2.50;;
14923;SDS011;7554;43.600;1.480;2023-02-15T12:47:03;6.47;;;2.80;;
14923;SDS011;7554;43.600;1.480;2023-02-15T12:49:32;4.87;;;2.47;;
14923;SDS011;7554;43.600;1.480;2023-02-15T12:52:01;3.50;;;2.10;;
14923;SDS011;7554;43.600;1.480;2023-02-15T12:54:33;6.80;;;2.70;;
14923;SDS011;7554;43.600;1.480;2023-02-15T12:57:14;8.77;;;2.77;;
14923;SDS011;7554;43.600;1.480;2023-02-15T12:59:50;4.73;;;2.47;;
14923;SDS011;7554;43.600;1.480;2023-02-15T13:02:20;5.77;;;2.70;;
14923;SDS011;7554;43.600;1.480;2023-02-15T13:04:50;4.83;;;2.30;;
14923;SDS011;7554;43.600;1.480;2023-02-15T13:07:19;3.40;;;2.43;;
14923;SDS011;7554;43.600;1.480;2023-02-15T13:09:46;6.27;;;2.07;;
14923;SDS011;7554;43.600;1.480;2023-02-15T13:12:16;3.93;;;2.30;;
14923;SDS011;7554;43.600;1.480;2023-02-15T13:14:47;4.70;;;2.50;;
14923;SDS011;7554;43.600;1.480;2023-02-15T13:17:18;5.80;;;2.57;;
14923;SDS011;7554;43.600;1.480;2023-02-15T13:19:54;3.63;;;2.10;;
14923;SDS011;7554;43.600;1.480;2023-02-15T13:22:25;3.83;;;2.70;;
14923;SDS011;7554;43.600;1.480;2023-02-15T13:24:59;7.40;;;2.63;;
14923;SDS011;7554;43.600;1.480;2023-02-15T13:27:33;6.03;;;2.87;;
14923;SDS011;7554;43.600;1.480;2023-02-15T13:30:10;2.97;;;2.17;;
14923;SDS011;7554;43.600;1.480;2023-02-15T13:32:46;4.03;;;2.00;;
14923;SDS011;7554;43.600;1.480;2023-02-15T13:35:18;4.20;;;2.17;;
14923;SDS011;7554;43.600;1.480;2023-02-15T13:37:50;3.23;;;2.20;;
14923;SDS011;7554;43.600;1.480;2023-02-15T13:40:30;4.07;;;2.10;;
14923;SDS011;7554;43.600;1.480;2023-02-15T13:43:05;5.13;;;2.43;;
14923;SDS011;7554;43.600;1.480;2023-02-15T13:45:43;5.37;;;2.37;;
14923;SDS011;7554;43.600;1.480;2023-02-15T13:48:20;2.40;;;1.63;;
14923;SDS011;7554;43.600;1.480;2023-02-15T13:51:04;6.10;;;2.47;;
14923;SDS011;7554;43.600;1.480;2023-02-15T13:53:43;5.83;;;1.83;;
14923;SDS011;7554;43.600;1.480;2023-02-15T13:56:33;4.43;;;2.33;;
14923;SDS011;7554;43.600;1.480;2023-02-15T13:59:17;3.83;;;2.20;;
14923;SDS011;7554;43.600;1.480;2023-02-15T14:02:02;3.27;;;2.33;;
14923;SDS011;7554;43.600;1.480;2023-02-15T14:04:55;5.73;;;2.23;;
14923;SDS011;7554;43.600;1.480;2023-02-15T14:07:43;2.90;;;2.10;;
14923;SDS011;7554;43.600;1.480;2023-02-15T14:10:29;5.40;;;1.63;;
14923;SDS011;7554;43.600;1.480;2023-02-15T14:16:11;2.67;;;2.10;;
14923;SDS011;7554;43.600;1.480;2023-02-15T14:18:46;5.47;;;2.23;;
14923;SDS011;7554;43.600;1.480;2023-02-15T14:21:19;2.60;;;1.50;;
14923;SDS011;7554;43.600;1.480;2023-02-15T14:23:57;3.83;;;1.90;;
14923;SDS011;7554;43.600;1.480;2023-02-15T14:26:35;3.40;;;2.07;;
14923;SDS011;7554;43.600;1.480;2023-02-15T14:29:14;4.50;;;2.07;;
14923;SDS011;7554;43.600;1.480;2023-02-15T14:31:52;2.47;;;1.90;;
14923;SDS011;7554;43.600;1.480;2023-02-15T14:34:23;3.33;;;2.10;;
14923;SDS011;7554;43.600;1.480;2023-02-15T14:36:54;3.50;;;2.07;;
14923;SDS011;7554;43.600;1.480;2023-02-15T14:39:26;4.37;;;2.47;;
14923;SDS011;7554;43.600;1.480;2023-02-15T14:42:18;4.73;;;2.07;;
14923;SDS011;7554;43.600;1.480;2023-02-15T14:44:53;3.07;;;2.20;;
14923;SDS011;7554;43.600;1.480;2023-02-15T14:47:26;3.53;;;2.23;;
14923;SDS011;7554;43.600;1.480;2023-02-15T14:50:01;7.00;;;2.40;;
14923;SDS011;7554;43.600;1.480;2023-02-15T14:56:17;4.93;;;2.10;;
14923;SDS011;7554;43.600;1.480;2023-02-15T15:01:40;2.27;;;1.80;;
14923;SDS011;7554;43.600;1.480;2023-02-15T15:04:09;4.63;;;2.10;;
14923;SDS011;7554;43.600;1.480;2023-02-15T15:06:42;2.73;;;1.87;;
14923;SDS011;7554;43.600;1.480;2023-02-15T15:09:11;2.77;;;2.00;;
14923;SDS011;7554;43.600;1.480;2023-02-15T15:11:45;4.57;;;2.20;;
14923;SDS011;7554;43.600;1.480;2023-02-15T15:17:08;4.67;;;2.57;;
14923;SDS011;7554;43.600;1.480;2023-02-15T15:22:40;5.97;;;2.53;;
14923;SDS011;7554;43.600;1.480;2023-02-15T15:25:09;3.23;;;2.20;;
14923;SDS011;7554;43.600;1.480;2023-02-15T15:27:49;5.67;;;2.27;;
14923;SDS011;7554;43.600;1.480;2023-02-15T15:46:23;5.70;;;2.37;;
14923;SDS011;7554;43.600;1.480;2023-02-15T15:49:14;4.60;;;2.47;;
14923;SDS011;7554;43.600;1.480;2023-02-15T15:51:43;5.00;;;2.73;;
14923;SDS011;7554;43.600;1.480;2023-02-15T15:54:13;5.23;;;2.57;;
14923;SDS011;7554;43.600;1.480;2023-02-15T15:56:46;5.23;;;2.83;;
14923;SDS011;7554;43.600;1.480;2023-02-15T15:59:18;7.40;;;2.57;;
14923;SDS011;7554;43.600;1.480;2023-02-15T16:01:48;5.97;;;2.73;;
14923;SDS011;7554;43.600;1.480;2023-02-15T16:04:22;6.50;;;2.77;;
14923;SDS011;7554;43.600;1.480;2023-02-15T16:06:51;4.93;;;2.83;;
14923;SDS011;7554;43.600;1.480;2023-02-15T16:09:20;9.30;;;3.27;;
14923;SDS011;7554;43.600;1.480;2023-02-15T16:11:50;3.67;;;2.30;;
14923;SDS011;7554;43.600;1.480;2023-02-15T16:14:23;3.87;;;2.60;;